Time;durP1;ratioP1;P1;durP2;ratioP2;P2;SDS_P1;SDS_P2;PMS_P1;PMS_P2;Temp;Humidity;BMP_temperature;BMP_pressure;BME280_temperature;BME280_humidity;BME280_pressure;Samples;Min_cycle;Max_cycle;Signal;HPM_P1;HPM_P2
2021/12/30 00:00:34;;;;;;;21.05;4.60;;;12.30;99.90;;;;;;4995428;28;20266;-80
2021/12/30 00:03:00;;;;;;;15.52;4.60;;;12.20;99.90;;;;;;4995880;28;20203;-80
2021/12/30 00:05:26;;;;;;;15.57;4.80;;;12.10;99.90;;;;;;4996074;28;20696;-80
2021/12/30 00:07:51;;;;;;;15.67;4.00;;;12.20;99.90;;;;;;4995677;28;20501;-80
2021/12/30 00:10:17;;;;;;;17.30;4.50;;;12.20;99.90;;;;;;4995112;28;20696;-80
2021/12/30 00:12:43;;;;;;;25.87;5.00;;;12.20;99.90;;;;;;4995610;28;20185;-81
2021/12/30 00:15:09;;;;;;;30.47;5.40;;;12.20;99.90;;;;;;4994317;28;20427;-81
2021/12/30 00:17:35;;;;;;;18.58;4.28;;;12.10;99.90;;;;;;4995509;28;20465;-81
2021/12/30 00:20:07;;;;;;;21.52;4.65;;;12.00;99.90;;;;;;4994998;28;20182;-81
2021/12/30 00:22:34;;;;;;;20.10;4.15;;;12.00;99.90;;;;;;4995308;28;20199;-80
2021/12/30 00:25:00;;;;;;;18.60;4.80;;;12.10;99.90;;;;;;4995425;28;20180;-80
2021/12/30 00:27:25;;;;;;;14.43;4.67;;;12.10;99.90;;;;;;4995304;28;20650;-80
2021/12/30 00:29:51;;;;;;;13.33;4.83;;;12.00;99.90;;;;;;4995041;28;20426;-81
2021/12/30 00:32:16;;;;;;;15.10;3.93;;;12.10;99.90;;;;;;4994881;28;20574;-81
2021/12/30 00:34:42;;;;;;;15.83;4.93;;;12.20;99.90;;;;;;4995196;28;20963;-80
2021/12/30 00:37:08;;;;;;;13.77;4.70;;;12.10;99.90;;;;;;4995166;28;20191;-80
2021/12/30 00:39:34;;;;;;;17.60;4.97;;;12.10;99.90;;;;;;4993701;28;20179;-80
2021/12/30 00:41:59;;;;;;;16.97;3.87;;;12.10;99.90;;;;;;4994959;28;20202;-80
2021/12/30 00:44:25;;;;;;;26.83;4.80;;;12.10;99.90;;;;;;4994637;28;20242;-80
2021/12/30 00:46:51;;;;;;;13.20;3.43;;;12.20;99.90;;;;;;4994902;28;20179;-80
2021/12/30 00:49:17;;;;;;;18.10;3.67;;;12.10;99.90;;;;;;4996734;28;20531;-79
2021/12/30 00:51:43;;;;;;;25.77;4.17;;;12.20;99.90;;;;;;4992014;28;20533;-80
2021/12/30 00:54:09;;;;;;;9.82;3.83;;;12.30;99.90;;;;;;4992446;28;20249;-80
2021/12/30 00:56:34;;;;;;;18.83;4.83;;;12.30;99.90;;;;;;4993220;28;20179;-80
2021/12/30 00:59:00;;;;;;;14.17;3.40;;;12.30;99.90;;;;;;4993383;28;20250;-80
2021/12/30 01:01:26;;;;;;;20.83;6.03;;;12.20;99.90;;;;;;4990537;28;20633;-80
2021/12/30 01:03:52;;;;;;;17.98;4.35;;;12.30;99.90;;;;;;4992074;28;20241;-80
2021/12/30 01:06:18;;;;;;;14.38;3.85;;;12.30;99.90;;;;;;4992816;28;20201;-80
2021/12/30 01:08:44;;;;;;;14.13;3.83;;;12.30;99.90;;;;;;4992467;28;20554;-80
2021/12/30 01:11:12;;;;;;;13.57;3.67;;;12.20;99.90;;;;;;4992118;28;20524;-80
2021/12/30 01:13:43;;;;;;;13.90;4.22;;;12.30;99.90;;;;;;4993044;28;20453;-81
2021/12/30 01:16:18;;;;;;;14.93;3.90;;;12.20;99.90;;;;;;4992141;28;20208;-81
2021/12/30 01:21:24;;;;;;;16.42;3.40;;;12.20;99.90;;;;;;4992757;28;20234;-80
2021/12/30 01:23:51;;;;;;;19.70;4.03;;;12.20;99.90;;;;;;4991898;28;20187;-81
2021/12/30 01:26:16;;;;;;;15.68;3.63;;;12.30;99.90;;;;;;4992946;28;20573;-81
2021/12/30 01:28:42;;;;;;;22.40;4.60;;;12.30;99.90;;;;;;4992352;28;20192;-81
2021/12/30 01:31:09;;;;;;;21.00;3.93;;;12.30;99.90;;;;;;4991605;28;20206;-80
2021/12/30 01:33:38;;;;;;;14.70;3.40;;;12.40;99.90;;;;;;4974936;28;20454;-79
2021/12/30 01:36:04;;;;;;;12.13;3.35;;;12.50;99.90;;;;;;4992795;28;20193;-80
2021/12/30 01:38:30;;;;;;;12.30;3.53;;;12.50;99.90;;;;;;4991784;28;20183;-80
2021/12/30 01:40:59;;;;;;;16.40;3.67;;;12.50;99.90;;;;;;4992006;28;20442;-80
2021/12/30 01:43:25;;;;;;;20.10;4.00;;;12.70;99.90;;;;;;4992216;28;20207;-80
2021/12/30 01:45:51;;;;;;;15.23;4.20;;;12.70;99.90;;;;;;4991905;28;20633;-80
2021/12/30 01:48:17;;;;;;;14.47;3.50;;;12.70;99.90;;;;;;4997245;28;20211;-80
2021/12/30 01:50:43;;;;;;;10.10;3.43;;;12.80;99.90;;;;;;5006949;28;20229;-80
2021/12/30 01:53:09;;;;;;;13.90;3.53;;;12.80;99.90;;;;;;5011282;28;20194;-80
2021/12/30 01:55:37;;;;;;;12.57;3.05;;;12.80;99.90;;;;;;5011906;28;20644;-80
2021/12/30 01:58:04;;;;;;;17.40;3.85;;;12.80;99.90;;;;;;5011133;28;20198;-80
2021/12/30 02:00:32;;;;;;;15.20;4.75;;;12.70;99.90;;;;;;5010702;28;20262;-80
2021/12/30 02:02:58;;;;;;;9.63;3.05;;;12.80;99.90;;;;;;5011862;28;20581;-81
2021/12/30 02:05:24;;;;;;;14.38;3.25;;;12.70;99.90;;;;;;5011735;28;20298;-81
2021/12/30 02:07:50;;;;;;;17.63;3.80;;;12.70;99.90;;;;;;5011379;28;20218;-80
2021/12/30 02:10:16;;;;;;;11.85;3.20;;;12.80;99.90;;;;;;5009833;28;20201;-80
2021/12/30 02:12:43;;;;;;;8.50;3.27;;;12.60;99.90;;;;;;5010728;28;20264;-80
2021/12/30 02:15:12;;;;;;;12.02;2.92;;;12.60;99.90;;;;;;4993601;28;20858;-80
2021/12/30 02:17:38;;;;;;;7.50;3.40;;;12.80;99.90;;;;;;5011931;28;20558;-81
2021/12/30 02:20:07;;;;;;;13.63;3.58;;;12.80;99.90;;;;;;5011195;28;20217;-80
2021/12/30 02:22:32;;;;;;;8.90;3.63;;;12.80;99.90;;;;;;5011211;28;20238;-80
2021/12/30 02:24:59;;;;;;;18.47;3.67;;;12.80;99.90;;;;;;5011300;28;20217;-80
2021/12/30 02:27:26;;;;;;;10.75;3.33;;;12.80;99.90;;;;;;5011847;28;20179;-81
2021/12/30 02:29:52;;;;;;;15.02;3.42;;;12.80;99.90;;;;;;5009162;28;20220;-80
2021/12/30 02:32:21;;;;;;;12.30;4.60;;;12.80;99.90;;;;;;5011686;28;20208;-80
2021/12/30 02:34:47;;;;;;;13.68;4.10;;;12.90;99.90;;;;;;5015481;28;20191;-80
2021/12/30 02:37:16;;;;;;;15.25;4.85;;;12.90;99.90;;;;;;5018980;28;20189;-81
2021/12/30 02:39:45;;;;;;;9.77;3.25;;;12.90;99.90;;;;;;4993707;28;20678;-81
2021/12/30 02:42:11;;;;;;;10.05;3.20;;;12.90;99.90;;;;;;5011795;28;20604;-80
2021/12/30 02:44:36;;;;;;;9.30;3.33;;;12.90;99.90;;;;;;5009548;28;20198;-80
2021/12/30 02:47:03;;;;;;;15.67;4.23;;;12.70;99.90;;;;;;5011129;28;20185;-80
2021/12/30 02:49:29;;;;;;;9.70;3.67;;;12.70;99.90;;;;;;5012570;28;20210;-80
2021/12/30 02:51:54;;;;;;;12.30;4.45;;;12.60;99.90;;;;;;5012844;28;20287;-81
2021/12/30 02:54:20;;;;;;;11.90;4.40;;;12.70;99.90;;;;;;5011709;28;20260;-81
2021/12/30 02:56:46;;;;;;;10.37;4.03;;;12.70;99.90;;;;;;5013044;28;20190;-80
2021/12/30 02:59:13;;;;;;;15.52;4.10;;;12.70;99.90;;;;;;5012442;28;20414;-81
2021/12/30 03:01:39;;;;;;;10.30;4.28;;;12.70;99.90;;;;;;5012597;28;20239;-80
2021/12/30 03:04:05;;;;;;;9.40;3.87;;;12.70;99.90;;;;;;5012898;28;20188;-79
2021/12/30 03:06:31;;;;;;;7.60;4.30;;;12.70;99.90;;;;;;5011723;28;20218;-79
2021/12/30 03:08:57;;;;;;;9.45;4.38;;;12.70;99.90;;;;;;5014730;28;20453;-80
2021/12/30 03:11:24;;;;;;;10.43;4.17;;;12.70;99.90;;;;;;5015731;28;20677;-81
2021/12/30 03:13:52;;;;;;;7.40;3.83;;;12.60;99.90;;;;;;5016373;28;20640;-80
2021/12/30 03:16:33;;;;;;;12.18;4.15;;;12.60;99.90;;;;;;5016313;28;20174;-79
2021/12/30 03:18:59;;;;;;;10.48;4.05;;;12.70;99.90;;;;;;5016248;28;20174;-79
2021/12/30 03:21:26;;;;;;;9.43;3.05;;;12.60;99.90;;;;;;5015562;28;20198;-79
2021/12/30 03:23:53;;;;;;;10.18;3.63;;;12.70;99.90;;;;;;5016069;28;20265;-78
2021/12/30 03:26:20;;;;;;;4.97;3.78;;;12.60;99.90;;;;;;5015837;28;20210;-78
2021/12/30 03:28:46;;;;;;;7.18;3.08;;;12.60;99.90;;;;;;5015957;28;20182;-79
2021/12/30 03:31:14;;;;;;;7.28;3.50;;;12.60;99.90;;;;;;5015385;28;20214;-79
2021/12/30 03:33:40;;;;;;;7.05;3.03;;;12.50;99.90;;;;;;5015732;28;20174;-78
2021/12/30 03:36:07;;;;;;;5.83;3.00;;;12.60;99.90;;;;;;5014629;28;20187;-78
2021/12/30 03:38:36;;;;;;;4.45;2.55;;;12.60;99.90;;;;;;5015868;28;20417;-79
2021/12/30 03:41:04;;;;;;;4.68;2.95;;;12.60;99.90;;;;;;5015394;28;20615;-78
2021/12/30 03:43:29;;;;;;;10.48;3.55;;;12.70;99.90;;;;;;5015709;28;20199;-78
2021/12/30 03:45:55;;;;;;;4.00;2.90;;;12.30;99.90;;;;;;5014541;28;20213;-77
2021/12/30 03:48:22;;;;;;;7.10;2.53;;;12.60;99.90;;;;;;5015965;28;20654;-77
2021/12/30 03:50:49;;;;;;;5.65;2.70;;;12.50;99.90;;;;;;5014086;28;20223;-78
2021/12/30 03:53:16;;;;;;;5.80;2.00;;;12.60;99.90;;;;;;5015739;28;20531;-78
2021/12/30 03:55:43;;;;;;;5.68;2.08;;;12.60;99.90;;;;;;5014296;28;20683;-78
2021/12/30 03:58:09;;;;;;;5.32;2.00;;;12.70;99.90;;;;;;5015503;28;20551;-78
2021/12/30 04:00:37;;;;;;;4.80;2.08;;;12.60;99.90;;;;;;5015055;28;20205;-78
2021/12/30 04:03:03;;;;;;;5.13;2.13;;;12.60;99.90;;;;;;5015238;28;20198;-78
2021/12/30 04:05:28;;;;;;;2.88;1.40;;;12.70;99.90;;;;;;5015351;28;20189;-78
2021/12/30 04:07:54;;;;;;;2.33;1.97;;;12.70;99.90;;;;;;5015137;28;20174;-78
2021/12/30 04:10:22;;;;;;;3.10;1.70;;;12.60;99.90;;;;;;5014682;28;20592;-78
2021/12/30 04:12:49;;;;;;;3.00;1.70;;;12.80;99.90;;;;;;5015334;28;20169;-78
2021/12/30 04:15:15;;;;;;;4.22;1.20;;;12.70;99.90;;;;;;5015263;28;20171;-78
2021/12/30 04:17:43;;;;;;;2.35;1.10;;;12.70;99.90;;;;;;5015110;28;20174;-79
2021/12/30 04:20:12;;;;;;;2.80;1.00;;;12.70;99.90;;;;;;5013888;28;20262;-79
2021/12/30 04:22:39;;;;;;;1.45;1.05;;;12.70;99.90;;;;;;5014931;28;20198;-78
2021/12/30 04:25:08;;;;;;;2.45;1.30;;;12.80;99.90;;;;;;5014899;28;20179;-78
2021/12/30 04:27:34;;;;;;;1.85;1.10;;;12.80;99.90;;;;;;5015075;28;20189;-78
2021/12/30 04:30:00;;;;;;;1.43;0.90;;;12.80;99.90;;;;;;5014234;28;20519;-79
2021/12/30 04:32:25;;;;;;;2.60;0.90;;;12.80;99.90;;;;;;5014682;28;20455;-78
2021/12/30 04:34:51;;;;;;;1.80;0.77;;;12.90;99.90;;;;;;5014761;28;20662;-78
2021/12/30 04:37:16;;;;;;;1.23;1.00;;;13.00;99.90;;;;;;5014772;28;20185;-78
2021/12/30 04:39:42;;;;;;;2.40;1.10;;;12.90;99.90;;;;;;5013328;28;20210;-78
2021/12/30 04:42:08;;;;;;;0.93;0.70;;;13.00;99.90;;;;;;5014431;28;20194;-79
2021/12/30 04:44:34;;;;;;;2.47;1.13;;;13.10;99.90;;;;;;5014754;28;20417;-78
2021/12/30 04:46:59;;;;;;;1.80;1.40;;;13.10;99.90;;;;;;5013308;28;20262;-78
2021/12/30 04:49:26;;;;;;;1.70;1.23;;;13.20;99.90;;;;;;5013148;28;20265;-78
2021/12/30 04:51:53;;;;;;;2.95;1.35;;;13.10;99.90;;;;;;5014385;28;20211;-78
2021/12/30 04:54:19;;;;;;;1.30;1.20;;;13.20;99.90;;;;;;5013041;28;20256;-78
2021/12/30 04:56:45;;;;;;;1.65;1.55;;;13.20;99.90;;;;;;5014394;28;20177;-78
2021/12/30 04:59:11;;;;;;;2.13;1.60;;;13.20;99.90;;;;;;5013870;28;20190;-80
2021/12/30 05:01:40;;;;;;;1.98;1.65;;;13.30;99.90;;;;;;5014059;28;20666;-78
2021/12/30 05:04:06;;;;;;;1.80;1.70;;;13.30;99.90;;;;;;5013034;28;20194;-79
2021/12/30 05:06:34;;;;;;;5.15;1.60;;;13.30;99.90;;;;;;5014285;28;20342;-79
2021/12/30 05:09:00;;;;;;;3.15;1.38;;;13.40;99.90;;;;;;5013075;28;20197;-79
2021/12/30 05:11:26;;;;;;;1.70;1.60;;;13.40;99.90;;;;;;5013733;28;20293;-79
2021/12/30 05:13:51;;;;;;;1.70;1.60;;;13.40;99.90;;;;;;5014086;28;20260;-79
2021/12/30 05:16:18;;;;;;;1.50;1.40;;;13.50;99.90;;;;;;5013898;28;20171;-80
2021/12/30 05:18:44;;;;;;;2.38;1.40;;;13.50;99.90;;;;;;5014029;28;20253;-80
2021/12/30 05:21:10;;;;;;;1.20;1.10;;;13.50;99.90;;;;;;5013525;28;20224;-81
2021/12/30 05:23:36;;;;;;;1.20;1.10;;;13.50;99.90;;;;;;5013957;28;20488;-80
2021/12/30 05:26:03;;;;;;;2.75;1.42;;;13.50;99.90;;;;;;5013887;28;20183;-80
2021/12/30 05:28:28;;;;;;;2.47;1.35;;;13.60;99.90;;;;;;5013616;28;20236;-79
2021/12/30 05:30:54;;;;;;;3.27;1.23;;;13.70;99.90;;;;;;5012014;28;20222;-80
2021/12/30 05:33:20;;;;;;;3.70;1.40;;;13.70;99.90;;;;;;5013666;28;20193;-79
2021/12/30 05:35:45;;;;;;;1.30;1.20;;;13.70;99.90;;;;;;5013728;28;20178;-80
2021/12/30 05:38:14;;;;;;;1.50;1.03;;;13.80;99.90;;;;;;5013692;28;20568;-80
2021/12/30 05:40:40;;;;;;;1.33;1.17;;;13.70;99.90;;;;;;5013123;28;20680;-80
2021/12/30 05:43:05;;;;;;;3.87;1.10;;;13.70;99.90;;;;;;5013717;28;20191;-80
2021/12/30 05:45:31;;;;;;;2.23;1.57;;;13.70;99.90;;;;;;5013599;28;20214;-80
2021/12/30 05:47:56;;;;;;;1.20;1.10;;;13.70;99.90;;;;;;5012453;28;20179;-80
2021/12/30 05:50:28;;;;;;;1.27;1.17;;;13.80;99.90;;;;;;5011916;28;20730;-81
2021/12/30 05:52:53;;;;;;;1.20;1.10;;;13.80;99.90;;;;;;5013796;28;20254;-81
2021/12/30 05:55:19;;;;;;;0.90;0.90;;;13.70;99.90;;;;;;5013417;28;20286;-80
2021/12/30 05:57:45;;;;;;;1.00;0.90;;;13.80;99.90;;;;;;5012410;28;20179;-80
2021/12/30 06:00:14;;;;;;;0.90;0.90;;;13.80;99.90;;;;;;5013309;28;20530;-80
2021/12/30 06:02:40;;;;;;;1.00;0.80;;;13.80;99.90;;;;;;5013288;28;20682;-81
2021/12/30 06:05:06;;;;;;;2.28;1.00;;;13.80;99.90;;;;;;5013645;28;20586;-80
2021/12/30 06:07:32;;;;;;;1.25;1.15;;;13.80;99.90;;;;;;5013586;28;20305;-81
2021/12/30 06:09:58;;;;;;;1.20;1.10;;;13.80;99.90;;;;;;5013122;28;20207;-81
2021/12/30 06:12:24;;;;;;;1.20;0.97;;;13.90;99.90;;;;;;5013162;28;20883;-81
2021/12/30 06:14:49;;;;;;;2.10;1.00;;;14.50;99.90;;;;;;5013425;28;20182;-81
2021/12/30 06:17:15;;;;;;;2.20;1.20;;;13.90;99.90;;;;;;5013382;28;20206;-80
2021/12/30 06:19:45;;;;;;;2.35;1.27;;;13.90;99.90;;;;;;5018101;28;20177;-81
2021/12/30 06:22:12;;;;;;;1.23;1.13;;;13.90;99.90;;;;;;4995986;28;20222;-80
2021/12/30 06:24:38;;;;;;;1.40;1.27;;;14.00;99.90;;;;;;5013189;28;20175;-81
2021/12/30 06:27:03;;;;;;;1.20;1.10;;;14.00;99.90;;;;;;5013105;28;20230;-81
2021/12/30 06:29:29;;;;;;;3.20;1.40;;;14.10;99.90;;;;;;5012941;28;20640;-81
2021/12/30 06:31:55;;;;;;;1.77;0.97;;;14.10;99.90;;;;;;5013085;28;20215;-81
2021/12/30 06:34:20;;;;;;;1.00;1.00;;;14.20;99.90;;;;;;5013148;28;20178;-81
2021/12/30 06:36:46;;;;;;;3.93;0.90;;;14.10;99.90;;;;;;5011925;28;20179;-81
2021/12/30 06:39:12;;;;;;;1.47;0.90;;;14.20;99.90;;;;;;5012721;28;20657;-81
2021/12/30 06:41:37;;;;;;;1.20;1.10;;;14.10;99.90;;;;;;5013021;28;20698;-80
2021/12/30 06:44:04;;;;;;;0.90;0.90;;;;;;;;;;5015396;28;20776;-81
2021/12/30 06:46:30;;;;;;;0.85;0.85;;;14.20;99.90;;;;;;5017114;28;20179;-81
2021/12/30 06:48:56;;;;;;;0.90;0.90;;;14.20;99.90;;;;;;5016827;28;20266;-81
2021/12/30 06:51:23;;;;;;;1.90;1.00;;;14.20;99.90;;;;;;5015096;28;20221;-81
2021/12/30 06:53:51;;;;;;;2.25;1.10;;;14.00;99.90;;;;;;5016809;28;20171;-81
2021/12/30 06:56:19;;;;;;;1.25;0.80;;;14.20;99.90;;;;;;5016700;28;20241;-81
2021/12/30 06:58:44;;;;;;;0.95;0.90;;;14.30;99.90;;;;;;5016486;28;20180;-81
2021/12/30 07:01:10;;;;;;;1.30;0.80;;;14.30;99.90;;;;;;5014615;28;20213;-81
2021/12/30 07:03:35;;;;;;;2.50;0.90;;;14.30;99.90;;;;;;5016596;28;20652;-81
2021/12/30 07:06:01;;;;;;;1.23;0.97;;;14.30;99.90;;;;;;5015319;28;20187;-81
2021/12/30 07:08:27;;;;;;;2.47;0.80;;;14.30;99.90;;;;;;5016397;28;20183;-81
2021/12/30 07:10:52;;;;;;;0.80;0.70;;;14.30;99.90;;;;;;5016105;28;20221;-81
2021/12/30 07:13:18;;;;;;;2.17;1.00;;;14.10;99.90;;;;;;5015000;28;20187;-82
2021/12/30 07:15:43;;;;;;;0.97;0.90;;;14.30;99.90;;;;;;5015272;28;20250;-81
2021/12/30 07:18:09;;;;;;;1.23;1.00;;;14.20;99.90;;;;;;5015308;28;20628;-81
2021/12/30 07:20:35;;;;;;;1.10;0.90;;;14.20;99.90;;;;;;5015950;28;20202;-81
2021/12/30 07:23:01;;;;;;;1.13;1.03;;;14.20;99.90;;;;;;5015025;28;20214;-81
2021/12/30 07:25:26;;;;;;;1.57;1.37;;;14.20;99.90;;;;;;5016024;28;20245;-81
2021/12/30 07:27:54;;;;;;;1.53;1.43;;;14.20;99.90;;;;;;5015007;28;20545;-81
2021/12/30 07:30:22;;;;;;;3.70;1.70;;;14.30;99.90;;;;;;5014311;28;20601;-81
2021/12/30 07:32:48;;;;;;;2.13;1.90;;;14.30;99.90;;;;;;5016067;28;20189;-81
2021/12/30 07:35:16;;;;;;;2.67;1.50;;;14.20;99.90;;;;;;5016138;28;20186;-82
2021/12/30 07:37:42;;;;;;;12.02;1.65;;;14.20;99.90;;;;;;5015831;28;20414;-81
2021/12/30 07:40:08;;;;;;;3.43;1.70;;;14.20;99.90;;;;;;5015533;28;20197;-81
2021/12/30 07:42:34;;;;;;;2.63;2.20;;;14.20;99.90;;;;;;5014498;28;20200;-81
2021/12/30 07:44:59;;;;;;;1.97;1.50;;;14.20;99.90;;;;;;5015947;28;20186;-81
2021/12/30 07:47:25;;;;;;;1.53;1.43;;;14.20;99.90;;;;;;5015533;28;20410;-82
2021/12/30 07:49:51;;;;;;;1.80;1.70;;;14.20;99.90;;;;;;5014210;28;20193;-82
2021/12/30 07:52:16;;;;;;;1.77;1.67;;;14.10;99.90;;;;;;5014316;28;20634;-81
2021/12/30 07:54:43;;;;;;;1.53;1.43;;;14.20;99.90;;;;;;5014465;28;20183;-81
2021/12/30 07:57:10;;;;;;;1.75;1.63;;;14.20;99.90;;;;;;5014637;28;20270;-81
2021/12/30 07:59:36;;;;;;;1.90;1.13;;;14.20;99.90;;;;;;5015046;28;20189;-81
2021/12/30 08:02:03;;;;;;;2.20;1.40;;;14.30;99.90;;;;;;5014444;28;20558;-81
2021/12/30 08:04:29;;;;;;;3.45;1.70;;;14.30;99.90;;;;;;5015595;28;20585;-81
2021/12/30 08:06:55;;;;;;;1.50;1.40;;;14.40;99.90;;;;;;5015427;28;20183;-81
2021/12/30 08:09:21;;;;;;;1.50;1.00;;;14.50;99.90;;;;;;5015009;28;20916;-82
2021/12/30 08:11:47;;;;;;;1.17;1.07;;;14.50;99.90;;;;;;5014752;28;20225;-81
2021/12/30 08:14:12;;;;;;;3.50;1.50;;;14.50;99.90;;;;;;5013967;28;20414;-81
2021/12/30 08:16:38;;;;;;;4.80;1.20;;;14.50;99.90;;;;;;5015166;28;20183;-81
2021/12/30 08:19:03;;;;;;;1.67;1.30;;;14.50;99.90;;;;;;5013759;28;20175;-81
2021/12/30 08:21:29;;;;;;;1.33;0.90;;;14.50;99.90;;;;;;5014635;28;20287;-81
2021/12/30 08:23:55;;;;;;;1.07;0.97;;;14.40;99.90;;;;;;5014878;28;20549;-81
2021/12/30 08:26:21;;;;;;;0.80;0.80;;;14.40;99.90;;;;;;5015011;28;20187;-81
2021/12/30 08:28:47;;;;;;;3.55;0.90;;;14.50;99.90;;;;;;5013754;28;20218;-81
2021/12/30 08:31:13;;;;;;;1.00;0.90;;;14.40;99.90;;;;;;5006063;28;20600;-81
2021/12/30 08:33:39;;;;;;;4.10;1.20;;;14.40;99.90;;;;;;5007573;28;20195;-81
2021/12/30 08:36:05;;;;;;;1.90;0.90;;;14.50;99.90;;;;;;5013030;28;20424;-81
2021/12/30 08:38:31;;;;;;;1.00;1.00;;;14.40;99.90;;;;;;5012487;28;20785;-81
2021/12/30 08:40:58;;;;;;;0.83;0.83;;;14.40;99.90;;;;;;5012927;28;20213;-81
2021/12/30 08:43:25;;;;;;;1.00;0.85;;;14.40;99.90;;;;;;5012974;28;20182;-82
2021/12/30 08:45:51;;;;;;;1.60;1.17;;;14.50;99.90;;;;;;5012498;28;20281;-81
2021/12/30 08:48:17;;;;;;;1.30;1.00;;;14.40;99.90;;;;;;5016695;28;20465;-81
2021/12/30 08:50:43;;;;;;;0.80;0.80;;;14.40;99.90;;;;;;5012749;28;20203;-82
2021/12/30 08:53:09;;;;;;;1.40;1.30;;;14.50;99.90;;;;;;5012085;28;20472;-82
2021/12/30 08:55:36;;;;;;;1.17;1.07;;;14.50;99.90;;;;;;5013000;28;20965;-81
2021/12/30 08:58:03;;;;;;;0.95;0.85;;;14.60;99.90;;;;;;5012461;28;20453;-81
2021/12/30 09:00:31;;;;;;;4.13;1.10;;;14.60;99.90;;;;;;5012174;28;20185;-82
2021/12/30 09:03:00;;;;;;;1.20;1.10;;;14.60;99.90;;;;;;5012514;28;20435;-82
2021/12/30 09:05:27;;;;;;;2.50;1.13;;;14.60;99.90;;;;;;5012896;28;20480;-82
2021/12/30 09:07:53;;;;;;;1.30;1.20;;;14.60;99.90;;;;;;5011508;28;20422;-82
2021/12/30 09:10:19;;;;;;;2.13;1.43;;;14.70;99.90;;;;;;5012376;28;20421;-82
2021/12/30 09:12:46;;;;;;;1.20;1.10;;;14.70;99.90;;;;;;5011268;28;20410;-81
2021/12/30 09:15:15;;;;;;;1.10;1.00;;;14.70;99.90;;;;;;5012159;28;20795;-81
2021/12/30 09:17:43;;;;;;;0.97;0.93;;;14.70;99.90;;;;;;5012177;28;20259;-81
2021/12/30 09:20:10;;;;;;;1.27;1.10;;;14.70;99.90;;;;;;5010953;28;20426;-81
2021/12/30 09:22:36;;;;;;;1.10;1.00;;;14.70;99.90;;;;;;5011569;28;20442;-81
2021/12/30 09:25:05;;;;;;;1.10;1.00;;;14.80;99.90;;;;;;5011302;28;20438;-81
2021/12/30 09:27:35;;;;;;;3.33;1.00;;;14.80;99.90;;;;;;5012106;28;20432;-80
2021/12/30 09:30:02;;;;;;;0.70;0.70;;;14.90;99.90;;;;;;5011382;28;20428;-81
2021/12/30 09:32:28;;;;;;;1.17;0.70;;;14.90;99.90;;;;;;5003203;28;20473;-81
2021/12/30 09:34:54;;;;;;;2.23;0.80;;;14.90;99.90;;;;;;5011159;28;20528;-81
2021/12/30 09:37:19;;;;;;;0.60;0.60;;;14.90;99.90;;;;;;5011330;28;20190;-81
2021/12/30 09:39:46;;;;;;;2.63;0.80;;;14.80;99.90;;;;;;5011832;28;20230;-81
2021/12/30 09:42:13;;;;;;;2.63;0.90;;;14.80;99.90;;;;;;5028584;28;20203;-81
2021/12/30 09:44:39;;;;;;;2.13;0.83;;;14.80;99.90;;;;;;5013588;28;20926;-81
2021/12/30 09:47:05;;;;;;;1.00;0.60;;;14.90;99.90;;;;;;5012244;28;20433;-80
2021/12/30 09:49:31;;;;;;;0.77;0.60;;;15.00;99.90;;;;;;4995620;28;20436;-80
2021/12/30 09:51:56;;;;;;;1.03;0.60;;;15.00;99.90;;;;;;5012694;28;20218;-82
2021/12/30 09:54:23;;;;;;;0.87;0.60;;;15.00;99.90;;;;;;5012680;28;20185;-80
2021/12/30 09:56:50;;;;;;;0.80;0.50;;;15.10;99.90;;;;;;5012097;28;20472;-81
2021/12/30 09:59:15;;;;;;;0.60;0.60;;;15.10;99.90;;;;;;5012823;28;20429;-81
2021/12/30 10:01:42;;;;;;;0.70;0.60;;;15.00;99.90;;;;;;4995745;28;20461;-81
2021/12/30 10:04:10;;;;;;;0.63;0.60;;;15.10;99.90;;;;;;5012460;28;20183;-81
2021/12/30 10:06:45;;;;;;;0.80;0.70;;;15.10;99.90;;;;;;5028846;28;20427;-81
2021/12/30 10:09:14;;;;;;;1.00;0.80;;;15.10;99.90;;;;;;5013194;28;20428;-82
2021/12/30 10:11:56;;;;;;;0.60;0.53;;;15.00;99.90;;;;;;5013390;28;20501;-79
2021/12/30 10:14:34;;;;;;;0.77;0.65;;;15.00;99.90;;;;;;5013397;28;20414;-81
2021/12/30 10:17:21;;;;;;;0.67;0.60;;;15.00;99.90;;;;;;5013404;28;20171;-80
2021/12/30 10:19:50;;;;;;;0.80;0.80;;;14.90;99.90;;;;;;5016722;28;20522;-80
2021/12/30 10:22:19;;;;;;;0.70;0.67;;;14.90;99.90;;;;;;5017353;28;20773;-80
2021/12/30 10:24:45;;;;;;;0.90;0.60;;;14.90;99.90;;;;;;5032244;28;20430;-80
2021/12/30 10:27:23;;;;;;;1.33;0.70;;;14.90;99.90;;;;;;5016144;28;20197;-80
2021/12/30 10:29:48;;;;;;;1.27;0.77;;;14.80;99.90;;;;;;5017219;28;20681;-80
2021/12/30 10:32:21;;;;;;;0.80;0.80;;;14.80;99.90;;;;;;5035163;28;20560;-80
2021/12/30 10:35:13;;;;;;;1.67;0.90;;;14.90;99.90;;;;;;5017161;28;20179;-81
2021/12/30 10:37:43;;;;;;;1.00;0.80;;;14.90;99.90;;;;;;5015826;28;20318;-80
2021/12/30 10:40:27;;;;;;;2.05;1.25;;;15.00;99.90;;;;;;5016758;28;20482;-80
2021/12/30 10:43:20;;;;;;;1.10;0.80;;;15.00;99.90;;;;;;5031990;28;20674;-81
2021/12/30 10:46:00;;;;;;;0.90;0.80;;;15.10;99.90;;;;;;5016891;28;20489;-82
2021/12/30 10:48:26;;;;;;;1.07;0.97;;;15.10;99.90;;;;;;5017347;28;20464;-80
2021/12/30 10:51:16;;;;;;;4.30;1.07;;;15.20;99.90;;;;;;5016225;28;20473;-81
2021/12/30 10:53:42;;;;;;;1.10;0.90;;;15.30;99.90;;;;;;5017213;28;20570;-81
2021/12/30 10:56:23;;;;;;;2.80;0.90;;;15.30;99.90;;;;;;5016895;28;20416;-81
2021/12/30 10:58:50;;;;;;;2.53;1.17;;;15.30;99.90;;;;;;5016545;28;20404;-80
2021/12/30 11:01:18;;;;;;;1.63;1.13;;;15.40;99.90;;;;;;5016181;28;20437;-80
2021/12/30 11:03:59;;;;;;;3.60;1.27;;;15.40;99.90;;;;;;5016581;28;20414;-81
2021/12/30 11:06:26;;;;;;;1.73;1.40;;;15.40;99.90;;;;;;5016539;28;20452;-80
2021/12/30 11:09:12;;;;;;;2.27;1.37;;;15.40;99.90;;;;;;5016291;28;20474;-80
2021/12/30 11:11:44;;;;;;;2.60;1.30;;;15.40;99.90;;;;;;5016110;28;20465;-81
2021/12/30 11:14:17;;;;;;;3.00;1.37;;;15.30;99.90;;;;;;5031431;28;20781;-80
2021/12/30 11:17:07;;;;;;;4.73;1.50;;;15.40;99.90;;;;;;5016550;28;20406;-81
2021/12/30 11:19:40;;;;;;;2.60;1.30;;;15.50;99.90;;;;;;5016060;28;20480;-81
2021/12/30 11:22:09;;;;;;;1.30;1.20;;;15.40;99.90;;;;;;5016224;28;20521;-81
2021/12/30 11:24:35;;;;;;;3.60;2.27;;;15.40;99.90;;;;;;5016059;28;20911;-81
2021/12/30 11:27:03;;;;;;;4.50;2.20;;;15.40;99.90;;;;;;5016009;28;20426;-81
2021/12/30 11:29:30;;;;;;;2.90;1.37;;;15.50;99.90;;;;;;5015776;28;20413;-81
2021/12/30 11:31:56;;;;;;;3.47;1.50;;;15.60;99.90;;;;;;5015870;28;20465;-81
2021/12/30 11:34:24;;;;;;;4.27;1.40;;;15.70;99.90;;;;;;5015954;28;20501;-80
2021/12/30 11:36:51;;;;;;;4.20;1.53;;;15.90;99.90;;;;;;5015954;28;20472;-81
2021/12/30 11:39:19;;;;;;;3.83;1.30;;;16.00;99.90;;;;;;5016211;28;20801;-81
2021/12/30 11:41:53;;;;;;;2.40;1.47;;;16.00;99.90;;;;;;5015724;28;20441;-81
2021/12/30 11:44:45;;;;;;;1.40;1.30;;;16.00;99.90;;;;;;5016263;28;20884;-82
2021/12/30 11:47:33;;;;;;;2.00;1.10;;;16.10;99.90;;;;;;5019138;28;20444;-80
2021/12/30 11:50:05;;;;;;;2.00;1.17;;;16.30;99.90;;;;;;5015584;28;20764;-81
2021/12/30 11:53:11;;;;;;;2.17;1.00;;;16.30;99.90;;;;;;5015666;28;20511;-81
2021/12/30 11:55:54;;;;;;;4.47;1.03;;;16.30;99.90;;;;;;5015432;28;20406;-81
2021/12/30 12:01:02;;;;;;;1.80;1.30;;;16.10;99.90;;;;;;5015133;28;20429;-81
2021/12/30 12:03:34;;;;;;;1.30;1.10;;;16.10;99.90;;;;;;5015237;28;20437;-81
2021/12/30 12:06:01;;;;;;;1.50;1.10;;;16.00;99.90;;;;;;5015253;28;20225;-81
2021/12/30 12:08:43;;;;;;;1.97;1.30;;;16.00;99.90;;;;;;5030808;28;20508;-81
2021/12/30 12:11:18;;;;;;;6.00;1.53;;;16.10;99.90;;;;;;5014816;28;20458;-81
2021/12/30 12:13:46;;;;;;;3.60;1.80;;;16.00;99.90;;;;;;5015375;28;20832;-81
2021/12/30 12:16:36;;;;;;;2.70;1.63;;;16.00;99.90;;;;;;5015398;28;20460;-81
2021/12/30 12:19:06;;;;;;;4.03;1.40;;;16.00;99.90;;;;;;4994225;28;20450;-81
2021/12/30 12:21:53;;;;;;;6.93;1.07;;;15.90;99.90;;;;;;5014698;28;20492;-80
2021/12/30 12:24:21;;;;;;;2.80;1.20;;;15.90;99.90;;;;;;5015053;28;20507;-81
2021/12/30 12:26:47;;;;;;;4.17;1.40;;;16.00;99.90;;;;;;5015025;28;20414;-81
2021/12/30 12:29:41;;;;;;;4.50;1.40;;;15.90;99.90;;;;;;5014485;28;20504;-81
2021/12/30 12:32:14;;;;;;;3.00;1.00;;;16.00;99.90;;;;;;5030179;28;20830;-81
2021/12/30 12:34:50;;;;;;;3.17;1.17;;;15.90;99.90;;;;;;5014919;28;20416;-81
2021/12/30 12:37:37;;;;;;;5.80;1.53;;;15.90;99.90;;;;;;5014738;28;20417;-80
2021/12/30 12:40:24;;;;;;;4.97;1.30;;;15.90;99.90;;;;;;5014367;28;20414;-80
2021/12/30 12:42:50;;;;;;;1.93;1.33;;;15.90;99.90;;;;;;5014267;28;20437;-81
2021/12/30 12:45:30;;;;;;;7.17;2.07;;;15.90;99.90;;;;;;5014524;28;20445;-81
2021/12/30 12:48:18;;;;;;;2.63;1.20;;;15.80;99.90;;;;;;5014379;28;20402;-80
2021/12/30 12:50:46;;;;;;;2.83;1.57;;;15.80;99.90;;;;;;5014333;28;20468;-80
2021/12/30 12:53:23;;;;;;;1.43;1.20;;;15.90;99.90;;;;;;5014462;28;20449;-80
2021/12/30 12:55:51;;;;;;;2.17;1.43;;;15.80;99.90;;;;;;5014395;28;20444;-81